sensor_id;sensor_type;location;lat;lon;timestamp;pressure;altitude;pressure_sealevel;temperature;humidity
71764;BME280;59602;52.142;5.408;2022-10-15T05:29:19;100774.56;;;11.04;92.89
71764;BME280;59602;52.142;5.408;2022-10-15T05:31:49;100785.44;;;11.04;92.71
71764;BME280;59602;52.142;5.408;2022-10-15T05:34:16;100776.09;;;11.05;93.01
71764;BME280;59602;52.142;5.408;2022-10-15T05:36:52;100779.22;;;11.07;93.11
71764;BME280;59602;52.142;5.408;2022-10-15T05:39:26;100774.56;;;11.07;92.85
71764;BME280;59602;52.142;5.408;2022-10-15T05:41:53;100774.56;;;11.11;93.11
71764;BME280;59602;52.142;5.408;2022-10-15T05:44:32;100778.88;;;11.15;93.28
71764;BME280;59602;52.142;5.408;2022-10-15T06:46:50;100784.44;;;12.05;96.92
71764;BME280;59602;52.142;5.408;2022-10-15T06:49:16;100789.13;;;12.08;97.06
71764;BME280;59602;52.142;5.408;2022-10-15T06:51:43;100783.25;;;12.10;96.62
71764;BME280;59602;52.142;5.408;2022-10-15T06:54:09;100779.75;;;12.13;96.66
71764;BME280;59602;52.142;5.408;2022-10-15T06:56:36;100781.69;;;12.16;96.64
71764;BME280;59602;52.142;5.408;2022-10-15T06:59:04;100788.31;;;12.18;96.51
71764;BME280;59602;52.142;5.408;2022-10-15T07:01:30;100784.81;;;12.21;96.74
71764;BME280;59602;52.142;5.408;2022-10-15T07:03:57;100788.72;;;12.24;96.35
71764;BME280;59602;52.142;5.408;2022-10-15T07:06:23;100782.84;;;12.25;96.61
71764;BME280;59602;52.142;5.408;2022-10-15T07:08:51;100787.13;;;12.27;96.47
71764;BME280;59602;52.142;5.408;2022-10-15T07:11:17;100778.16;;;12.30;96.49
71764;BME280;59602;52.142;5.408;2022-10-15T07:13:44;100781.28;;;12.32;96.65
71764;BME280;59602;52.142;5.408;2022-10-15T07:16:11;100787.88;;;12.34;96.42
71764;BME280;59602;52.142;5.408;2022-10-15T07:18:38;100796.47;;;12.36;96.54
71764;BME280;59602;52.142;5.408;2022-10-15T07:21:06;100798.03;;;12.37;96.94
71764;BME280;59602;52.142;5.408;2022-10-15T07:23:33;100788.66;;;12.38;96.46
71764;BME280;59602;52.142;5.408;2022-10-15T07:26:00;100786.31;;;12.40;96.85
71764;BME280;59602;52.142;5.408;2022-10-15T07:28:27;100790.22;;;12.43;96.35
71764;BME280;59602;52.142;5.408;2022-10-15T07:30:54;100796.81;;;12.45;96.58
71764;BME280;59602;52.142;5.408;2022-10-15T07:33:25;100798.00;;;12.48;96.81
71764;BME280;59602;52.142;5.408;2022-10-15T07:35:51;100798.38;;;12.50;96.71
71764;BME280;59602;52.142;5.408;2022-10-15T07:38:18;100803.44;;;12.52;96.72
71764;BME280;59602;52.142;5.408;2022-10-15T07:40:45;100795.66;;;12.54;96.21
71764;BME280;59602;52.142;5.408;2022-10-15T07:43:14;100795.66;;;12.57;96.47
71764;BME280;59602;52.142;5.408;2022-10-15T07:45:45;100795.25;;;12.59;96.28
71764;BME280;59602;52.142;5.408;2022-10-15T07:52:10;100791.31;;;12.67;96.51
71764;BME280;59602;52.142;5.408;2022-10-15T07:55:26;100784.69;;;12.72;96.39
71764;BME280;59602;52.142;5.408;2022-10-15T08:04:30;100780.75;;;12.80;96.49
71764;BME280;59602;52.142;5.408;2022-10-15T08:22:32;100744.78;;;13.03;96.77
71764;BME280;59602;52.142;5.408;2022-10-15T08:28:00;100738.94;;;13.04;96.62
71764;BME280;59602;52.142;5.408;2022-10-15T08:31:16;100736.59;;;13.06;96.95
71764;BME280;59602;52.142;5.408;2022-10-15T08:33:48;100742.44;;;13.08;96.56
71764;BME280;59602;52.142;5.408;2022-10-15T08:36:17;100743.16;;;13.13;96.81
71764;BME280;59602;52.142;5.408;2022-10-15T08:38:46;100743.16;;;13.13;96.83
71764;BME280;59602;52.142;5.408;2022-10-15T08:41:45;100745.88;;;13.16;96.61
71764;BME280;59602;52.142;5.408;2022-10-15T08:44:21;100747.41;;;13.21;96.73
71764;BME280;59602;52.142;5.408;2022-10-15T08:46:55;100737.25;;;13.28;96.66
71764;BME280;59602;52.142;5.408;2022-10-15T08:52:44;100743.44;;;13.36;96.17
71764;BME280;59602;52.142;5.408;2022-10-15T08:55:13;100727.81;;;13.40;96.34
71764;BME280;59602;52.142;5.408;2022-10-15T08:57:55;100731.69;;;13.43;96.13
71764;BME280;59602;52.142;5.408;2022-10-15T09:01:13;100720.75;;;13.46;96.46
71764;BME280;59602;52.142;5.408;2022-10-15T09:04:31;100721.06;;;13.52;96.26
71764;BME280;59602;52.142;5.408;2022-10-15T09:07:40;100727.28;;;13.60;96.16
71764;BME280;59602;52.142;5.408;2022-10-15T09:10:51;100726.03;;;13.68;95.97
71764;BME280;59602;52.142;5.408;2022-10-15T09:13:54;100713.88;;;13.73;95.55
71764;BME280;59602;52.142;5.408;2022-10-15T09:19:56;100719.25;;;13.83;95.97
71764;BME280;59602;52.142;5.408;2022-10-15T09:22:37;100719.22;;;13.87;96.09
71764;BME280;59602;52.142;5.408;2022-10-15T09:32:35;100691.06;;;13.94;95.23
71764;BME280;59602;52.142;5.408;2022-10-15T09:45:18;100691.81;;;13.98;95.41
71764;BME280;59602;52.142;5.408;2022-10-15T09:48:39;100698.81;;;13.99;95.70
71764;BME280;59602;52.142;5.408;2022-10-15T09:51:39;100696.84;;;13.99;95.36
71764;BME280;59602;52.142;5.408;2022-10-15T09:57:36;100702.28;;;14.03;94.92
71764;BME280;59602;52.142;5.408;2022-10-15T10:01:06;100707.75;;;14.03;95.06
71764;BME280;59602;52.142;5.408;2022-10-15T10:06:48;100685.13;;;13.99;95.38
71764;BME280;59602;52.142;5.408;2022-10-15T10:09:20;100661.72;;;13.98;95.21
71764;BME280;59602;52.142;5.408;2022-10-15T10:11:53;100664.81;;;14.00;95.48
71764;BME280;59602;52.142;5.408;2022-10-15T10:14:43;100657.78;;;14.02;95.60
71764;BME280;59602;52.142;5.408;2022-10-15T10:17:19;100656.94;;;14.05;95.59
71764;BME280;59602;52.142;5.408;2022-10-15T10:22:45;100653.69;;;14.18;96.16
71764;BME280;59602;52.142;5.408;2022-10-15T10:27:54;100660.97;;;14.28;96.53
71764;BME280;59602;52.142;5.408;2022-10-15T10:30:21;100659.00;;;14.28;96.12
71764;BME280;59602;52.142;5.408;2022-10-15T10:32:55;100652.00;;;14.27;96.38
71764;BME280;59602;52.142;5.408;2022-10-15T10:35:26;100666.09;;;14.26;96.16
71764;BME280;59602;52.142;5.408;2022-10-15T10:37:56;100658.28;;;14.24;96.33
71764;BME280;59602;52.142;5.408;2022-10-15T10:40:26;100651.25;;;14.27;96.11
71764;BME280;59602;52.142;5.408;2022-10-15T10:43:11;100659.81;;;14.29;96.31
71764;BME280;59602;52.142;5.408;2022-10-15T10:45:38;100657.09;;;14.29;96.62
71764;BME280;59602;52.142;5.408;2022-10-15T10:48:24;100649.63;;;14.29;96.19
71764;BME280;59602;52.142;5.408;2022-10-15T10:51:10;100646.06;;;14.32;96.57
71764;BME280;59602;52.142;5.408;2022-10-15T10:53:48;100656.25;;;14.32;96.58
71764;BME280;59602;52.142;5.408;2022-10-15T10:56:18;100649.63;;;14.29;96.36
71764;BME280;59602;52.142;5.408;2022-10-15T10:58:50;100647.31;;;14.28;96.74
71764;BME280;59602;52.142;5.408;2022-10-15T11:01:17;100658.25;;;14.28;96.51
71764;BME280;59602;52.142;5.408;2022-10-15T11:03:44;100646.16;;;14.25;97.00
71764;BME280;59602;52.142;5.408;2022-10-15T11:06:32;100643.03;;;14.27;96.96
71764;BME280;59602;52.142;5.408;2022-10-15T11:12:13;100644.16;;;14.29;96.98
71764;BME280;59602;52.142;5.408;2022-10-15T11:20:39;100631.63;;;14.32;96.88
71764;BME280;59602;52.142;5.408;2022-10-15T11:26:22;100614.75;;;14.37;97.02
71764;BME280;59602;52.142;5.408;2022-10-15T11:34:33;100613.50;;;14.45;96.95
71764;BME280;59602;52.142;5.408;2022-10-15T11:39:50;100613.50;;;14.45;97.41
71764;BME280;59602;52.142;5.408;2022-10-15T11:45:25;100609.56;;;14.46;97.10
71764;BME280;59602;52.142;5.408;2022-10-15T11:47:57;100609.56;;;14.46;97.19
71764;BME280;59602;52.142;5.408;2022-10-15T11:50:46;100610.34;;;14.47;97.20
71764;BME280;59602;52.142;5.408;2022-10-15T11:53:27;100610.28;;;14.50;97.56
71764;BME280;59602;52.142;5.408;2022-10-15T11:56:05;100606.75;;;14.53;97.56
71764;BME280;59602;52.142;5.408;2022-10-15T11:58:44;100602.03;;;14.54;97.56
71764;BME280;59602;52.142;5.408;2022-10-15T12:01:21;100596.56;;;14.54;97.24
71764;BME280;59602;52.142;5.408;2022-10-15T12:04:01;100602.78;;;14.58;97.37
71764;BME280;59602;52.142;5.408;2022-10-15T12:06:33;100601.97;;;14.61;97.58
71764;BME280;59602;52.142;5.408;2022-10-15T12:09:03;100600.75;;;14.62;97.86
71764;BME280;59602;52.142;5.408;2022-10-15T12:11:40;100596.44;;;14.65;97.36
71764;BME280;59602;52.142;5.408;2022-10-15T12:14:27;100601.84;;;14.68;97.62
71764;BME280;59602;52.142;5.408;2022-10-15T12:17:22;100605.31;;;14.72;97.92
71764;BME280;59602;52.142;5.408;2022-10-15T12:20:06;100606.44;;;14.75;98.04
71764;BME280;59602;52.142;5.408;2022-10-15T12:28:02;100589.13;;;14.82;98.17
71764;BME280;59602;52.142;5.408;2022-10-15T12:30:32;100594.97;;;14.84;98.47
71764;BME280;59602;52.142;5.408;2022-10-15T12:33:00;100587.53;;;14.84;98.40
71764;BME280;59602;52.142;5.408;2022-10-15T12:35:34;100595.75;;;14.84;98.32
71764;BME280;59602;52.142;5.408;2022-10-15T12:38:10;100596.88;;;14.87;98.65
71764;BME280;59602;52.142;5.408;2022-10-15T12:40:42;100590.22;;;14.88;98.58
71764;BME280;59602;52.142;5.408;2022-10-15T12:43:14;100593.31;;;14.90;98.46
71764;BME280;59602;52.142;5.408;2022-10-15T12:45:53;100603.44;;;14.93;98.71
71764;BME280;59602;52.142;5.408;2022-10-15T12:48:34;100596.00;;;14.93;98.74
71764;BME280;59602;52.142;5.408;2022-10-15T12:53:47;100598.31;;;14.95;99.01
71764;BME280;59602;52.142;5.408;2022-10-15T13:04:55;100601.75;;;15.03;99.47
71764;BME280;59602;52.142;5.408;2022-10-15T13:10:02;100610.13;;;15.15;99.58
71764;BME280;59602;52.142;5.408;2022-10-15T13:23:48;100623.63;;;15.26;99.63
71764;BME280;59602;52.142;5.408;2022-10-15T13:26:58;100619.78;;;15.24;99.36
71764;BME280;59602;52.142;5.408;2022-10-15T13:29:53;100636.63;;;15.22;99.62
71764;BME280;59602;52.142;5.408;2022-10-15T13:32:44;100629.59;;;15.21;99.51
71764;BME280;59602;52.142;5.408;2022-10-15T13:35:15;100633.50;;;15.20;99.76
71764;BME280;59602;52.142;5.408;2022-10-15T13:37:43;100633.09;;;15.22;99.73
71764;BME280;59602;52.142;5.408;2022-10-15T13:40:20;100624.84;;;15.25;99.77
71764;BME280;59602;52.142;5.408;2022-10-15T13:43:04;100632.16;;;15.32;99.65
71764;BME280;59602;52.142;5.408;2022-10-15T13:51:56;100631.28;;;15.39;99.23
71764;BME280;59602;52.142;5.408;2022-10-15T13:55:08;100639.13;;;15.36;99.06
71764;BME280;59602;52.142;5.408;2022-10-15T13:57:50;100637.56;;;15.35;99.05
71764;BME280;59602;52.142;5.408;2022-10-15T14:00:27;100639.50;;;15.39;99.11
71764;BME280;59602;52.142;5.408;2022-10-15T14:03:24;100653.13;;;15.42;99.12
71764;BME280;59602;52.142;5.408;2022-10-15T14:05:52;100656.97;;;15.45;98.94
71764;BME280;59602;52.142;5.408;2022-10-15T14:08:23;100656.53;;;15.50;99.21
71764;BME280;59602;52.142;5.408;2022-10-15T14:10:52;100663.13;;;15.52;99.00
71764;BME280;59602;52.142;5.408;2022-10-15T14:13:22;100665.03;;;15.55;99.14
71764;BME280;59602;52.142;5.408;2022-10-15T14:15:57;100660.75;;;15.54;99.04
71764;BME280;59602;52.142;5.408;2022-10-15T14:18:30;100664.25;;;15.55;98.69
71764;BME280;59602;52.142;5.408;2022-10-15T14:20:57;100664.66;;;15.53;98.40
71764;BME280;59602;52.142;5.408;2022-10-15T14:23:25;100667.84;;;15.52;98.19
71764;BME280;59602;52.142;5.408;2022-10-15T14:25:55;100672.53;;;15.51;98.14
71764;BME280;59602;52.142;5.408;2022-10-15T14:28:23;100679.97;;;15.51;98.14
71764;BME280;59602;52.142;5.408;2022-10-15T14:31:00;100687.44;;;15.50;97.77
71764;BME280;59602;52.142;5.408;2022-10-15T14:38:44;100692.56;;;15.48;97.68
71764;BME280;59602;52.142;5.408;2022-10-15T14:44:20;100709.94;;;15.38;96.65
71764;BME280;59602;52.142;5.408;2022-10-15T14:46:52;100706.88;;;15.36;96.74
71764;BME280;59602;52.142;5.408;2022-10-15T14:49:30;100716.66;;;15.33;96.06
71764;BME280;59602;52.142;5.408;2022-10-15T14:52:33;100727.69;;;15.30;95.36
71764;BME280;59602;52.142;5.408;2022-10-15T14:58:08;100734.06;;;15.23;94.81
71764;BME280;59602;52.142;5.408;2022-10-15T15:00:41;100730.19;;;15.21;95.12
71764;BME280;59602;52.142;5.408;2022-10-15T15:03:28;100738.81;;;15.19;95.09
71764;BME280;59602;52.142;5.408;2022-10-15T15:06:02;100732.06;;;15.24;95.03
71764;BME280;59602;52.142;5.408;2022-10-15T15:12:19;100736.31;;;15.28;94.51
71764;BME280;59602;52.142;5.408;2022-10-15T15:15:17;100746.50;;;15.28;94.47
71764;BME280;59602;52.142;5.408;2022-10-15T15:18:09;100744.25;;;15.23;94.70
71764;BME280;59602;52.142;5.408;2022-10-15T15:20:41;100749.38;;;15.17;94.19
71764;BME280;59602;52.142;5.408;2022-10-15T15:23:17;100741.66;;;15.12;93.37
71764;BME280;59602;52.142;5.408;2022-10-15T15:28:26;100757.03;;;15.02;91.23
71764;BME280;59602;52.142;5.408;2022-10-15T15:30:56;100756.66;;;15.00;90.82
71764;BME280;59602;52.142;5.408;2022-10-15T15:33:23;100757.47;;;14.97;91.09
71764;BME280;59602;52.142;5.408;2022-10-15T15:36:03;100763.38;;;14.95;90.65
71764;BME280;59602;52.142;5.408;2022-10-15T15:38:30;100758.31;;;14.94;89.81
71764;BME280;59602;52.142;5.408;2022-10-15T15:41:00;100751.28;;;14.93;89.43
71764;BME280;59602;52.142;5.408;2022-10-15T15:43:29;100753.66;;;14.91;90.04
71764;BME280;59602;52.142;5.408;2022-10-15T15:45:58;100758.00;;;14.88;90.68
71764;BME280;59602;52.142;5.408;2022-10-15T15:48:42;100768.19;;;14.84;91.83
71764;BME280;59602;52.142;5.408;2022-10-15T15:51:23;100761.22;;;14.80;91.65
71764;BME280;59602;52.142;5.408;2022-10-15T15:53:50;100760.91;;;14.74;91.80
71764;BME280;59602;52.142;5.408;2022-10-15T15:56:17;100769.16;;;14.70;92.46
71764;BME280;59602;52.142;5.408;2022-10-15T15:58:44;100765.69;;;14.66;92.66
71764;BME280;59602;52.142;5.408;2022-10-15T16:01:11;100772.00;;;14.63;92.68
71764;BME280;59602;52.142;5.408;2022-10-15T16:03:38;100772.44;;;14.58;92.69
71764;BME280;59602;52.142;5.408;2022-10-15T16:06:05;100769.34;;;14.52;92.42
71764;BME280;59602;52.142;5.408;2022-10-15T16:08:33;100783.06;;;14.49;92.53
71764;BME280;59602;52.142;5.408;2022-10-15T16:11:01;100784.25;;;14.44;93.02
71764;BME280;59602;52.142;5.408;2022-10-15T16:13:28;100793.31;;;14.41;92.68
71764;BME280;59602;52.142;5.408;2022-10-15T16:15:55;100796.06;;;14.38;92.71
71764;BME280;59602;52.142;5.408;2022-10-15T16:18:22;100789.06;;;14.33;92.40
71764;BME280;59602;52.142;5.408;2022-10-15T16:20:49;100787.16;;;14.30;91.89
71764;BME280;59602;52.142;5.408;2022-10-15T16:23:16;100791.50;;;14.24;91.79
71764;BME280;59602;52.142;5.408;2022-10-15T16:25:42;100802.50;;;14.20;92.26
71764;BME280;59602;52.142;5.408;2022-10-15T16:28:09;100807.59;;;14.18;92.01
71764;BME280;59602;52.142;5.408;2022-10-15T16:30:36;100801.75;;;14.16;91.80
71764;BME280;59602;52.142;5.408;2022-10-15T16:33:03;100808.81;;;14.14;91.65
71764;BME280;59602;52.142;5.408;2022-10-15T16:35:32;100810.78;;;14.09;91.61
71764;BME280;59602;52.142;5.408;2022-10-15T16:37:58;100812.78;;;14.05;91.58
71764;BME280;59602;52.142;5.408;2022-10-15T16:40:26;100818.28;;;14.02;91.66
71764;BME280;59602;52.142;5.408;2022-10-15T16:42:52;100817.94;;;13.96;91.65
71764;BME280;59602;52.142;5.408;2022-10-15T16:45:19;100826.59;;;13.91;91.61
71764;BME280;59602;52.142;5.408;2022-10-15T16:47:45;100822.31;;;13.86;91.17
71764;BME280;59602;52.142;5.408;2022-10-15T16:50:12;100822.72;;;13.81;91.26
71764;BME280;59602;52.142;5.408;2022-10-15T16:52:38;100830.97;;;13.78;91.33
71764;BME280;59602;52.142;5.408;2022-10-15T16:55:05;100832.19;;;13.73;90.77
71764;BME280;59602;52.142;5.408;2022-10-15T16:57:32;100835.69;;;13.70;90.38
71764;BME280;59602;52.142;5.408;2022-10-15T16:59:59;100839.63;;;13.65;90.79
71764;BME280;59602;52.142;5.408;2022-10-15T17:02:26;100843.94;;;13.63;90.49
71764;BME280;59602;52.142;5.408;2022-10-15T17:04:53;100844.38;;;13.58;90.70
71764;BME280;59602;52.142;5.408;2022-10-15T17:07:19;100852.97;;;13.53;90.71
71764;BME280;59602;52.142;5.408;2022-10-15T17:09:46;100848.69;;;13.52;90.88
71764;BME280;59602;52.142;5.408;2022-10-15T17:12:13;100859.25;;;13.49;90.51
71764;BME280;59602;52.142;5.408;2022-10-15T17:14:39;100856.53;;;13.46;90.69
71764;BME280;59602;52.142;5.408;2022-10-15T17:17:06;100861.59;;;13.44;90.81
71764;BME280;59602;52.142;5.408;2022-10-15T17:19:33;100863.97;;;13.42;90.77
71764;BME280;59602;52.142;5.408;2022-10-15T17:22:00;100873.34;;;13.41;90.56
71764;BME280;59602;52.142;5.408;2022-10-15T17:24:27;100876.06;;;13.37;90.62
71764;BME280;59602;52.142;5.408;2022-10-15T17:27:02;100880.41;;;13.31;90.72
71764;BME280;59602;52.142;5.408;2022-10-15T17:29:55;100882.75;;;13.29;90.92
71764;BME280;59602;52.142;5.408;2022-10-15T17:32:39;100886.22;;;13.26;90.64
71764;BME280;59602;52.142;5.408;2022-10-15T17:35:06;100892.50;;;13.23;90.57
71764;BME280;59602;52.142;5.408;2022-10-15T17:37:33;100893.31;;;13.20;90.87
71764;BME280;59602;52.142;5.408;2022-10-15T17:40:00;100897.97;;;13.19;91.10
71764;BME280;59602;52.142;5.408;2022-10-15T17:42:27;100903.84;;;13.18;90.70
71764;BME280;59602;52.142;5.408;2022-10-15T17:44:53;100903.44;;;13.16;90.98
71764;BME280;59602;52.142;5.408;2022-10-15T17:47:25;100899.56;;;13.13;90.92
71764;BME280;59602;52.142;5.408;2022-10-15T17:50:15;100912.06;;;13.11;90.45
71764;BME280;59602;52.142;5.408;2022-10-15T17:52:43;100910.09;;;13.07;90.55
71764;BME280;59602;52.142;5.408;2022-10-15T17:55:44;100919.09;;;13.04;90.92
71764;BME280;59602;52.142;5.408;2022-10-15T17:58:12;100919.84;;;13.01;90.84
71764;BME280;59602;52.142;5.408;2022-10-15T18:00:58;100918.31;;;13.00;90.82
71764;BME280;59602;52.142;5.408;2022-10-15T18:03:44;100921.84;;;12.97;90.76
71764;BME280;59602;52.142;5.408;2022-10-15T18:06:13;100923.38;;;12.95;90.84
71764;BME280;59602;52.142;5.408;2022-10-15T18:12:04;100936.66;;;12.89;90.55
71764;BME280;59602;52.142;5.408;2022-10-15T18:15:03;100933.94;;;12.85;90.73
71764;BME280;59602;52.142;5.408;2022-10-15T18:17:59;100932.78;;;12.83;90.38
71764;BME280;59602;52.142;5.408;2022-10-15T18:21:12;100950.31;;;12.78;90.66
71764;BME280;59602;52.142;5.408;2022-10-15T18:24:29;100947.19;;;12.76;90.52
71764;BME280;59602;52.142;5.408;2022-10-15T18:30:38;100956.16;;;12.77;91.28
71764;BME280;59602;52.142;5.408;2022-10-15T18:33:10;100965.91;;;12.78;91.46
71764;BME280;59602;52.142;5.408;2022-10-15T18:35:45;100955.41;;;12.80;91.81
71764;BME280;59602;52.142;5.408;2022-10-15T18:38:39;100950.31;;;12.82;91.62
71764;BME280;59602;52.142;5.408;2022-10-15T18:41:33;100954.22;;;12.84;92.08
71764;BME280;59602;52.142;5.408;2022-10-15T18:44:09;100953.44;;;12.84;92.13
71764;BME280;59602;52.142;5.408;2022-10-15T18:47:28;100956.16;;;12.84;91.75
71764;BME280;59602;52.142;5.408;2022-10-15T18:50:32;100956.16;;;12.84;92.09
71764;BME280;59602;52.142;5.408;2022-10-15T18:54:08;100957.72;;;12.81;91.98
71764;BME280;59602;52.142;5.408;2022-10-15T18:56:30;100956.56;;;12.82;91.84
71764;BME280;59602;52.142;5.408;2022-10-15T18:58:59;100955.78;;;12.82;91.82
71764;BME280;59602;52.142;5.408;2022-10-15T19:01:27;100954.22;;;12.81;91.93
71764;BME280;59602;52.142;5.408;2022-10-15T19:04:14;100941.34;;;12.78;92.14
71764;BME280;59602;52.142;5.408;2022-10-15T19:07:25;100950.31;;;12.78;91.84
71764;BME280;59602;52.142;5.408;2022-10-15T19:10:09;100960.06;;;12.76;92.29
71764;BME280;59602;52.142;5.408;2022-10-15T19:13:07;100959.28;;;12.75;92.15
71764;BME280;59602;52.142;5.408;2022-10-15T19:16:07;100957.72;;;12.74;92.19
71764;BME280;59602;52.142;5.408;2022-10-15T19:18:46;100960.44;;;12.74;91.98
71764;BME280;59602;52.142;5.408;2022-10-15T19:21:14;100971.78;;;12.73;92.10
71764;BME280;59602;52.142;5.408;2022-10-15T19:23:41;100964.75;;;12.72;92.32
71764;BME280;59602;52.142;5.408;2022-10-15T19:26:10;100965.94;;;12.71;92.30
71764;BME280;59602;52.142;5.408;2022-10-15T19:28:37;100959.28;;;12.72;92.27
71764;BME280;59602;52.142;5.408;2022-10-15T19:31:08;100960.06;;;12.72;92.24
71764;BME280;59602;52.142;5.408;2022-10-15T19:34:06;100962.00;;;12.72;92.13
71764;BME280;59602;52.142;5.408;2022-10-15T19:36:36;100956.94;;;12.74;92.51
71764;BME280;59602;52.142;5.408;2022-10-15T19:39:06;100967.09;;;12.73;92.29
71764;BME280;59602;52.142;5.408;2022-10-15T19:41:37;100962.00;;;12.72;92.66
71764;BME280;59602;52.142;5.408;2022-10-15T19:44:12;100970.97;;;12.72;92.28
71764;BME280;59602;52.142;5.408;2022-10-15T19:46:39;100972.94;;;12.72;92.26
71764;BME280;59602;52.142;5.408;2022-10-15T19:49:11;100979.56;;;12.71;92.57
71764;BME280;59602;52.142;5.408;2022-10-15T19:51:38;100979.16;;;12.72;92.59
71764;BME280;59602;52.142;5.408;2022-10-15T19:54:05;100972.53;;;12.73;92.63
71764;BME280;59602;52.142;5.408;2022-10-15T19:56:33;100983.06;;;12.75;92.32
71764;BME280;59602;52.142;5.408;2022-10-15T19:59:03;100978.78;;;12.74;92.34
71764;BME280;59602;52.142;5.408;2022-10-15T20:01:33;100981.50;;;12.74;91.74
71764;BME280;59602;52.142;5.408;2022-10-15T20:04:03;100972.91;;;12.79;92.15
71764;BME280;59602;52.142;5.408;2022-10-15T20:06:34;100977.59;;;12.82;92.03
71764;BME280;59602;52.142;5.408;2022-10-15T20:09:01;100975.28;;;12.84;92.37
71764;BME280;59602;52.142;5.408;2022-10-15T20:11:28;100980.72;;;12.84;92.11
71764;BME280;59602;52.142;5.408;2022-10-15T20:13:55;100983.84;;;12.86;92.42
71764;BME280;59602;52.142;5.408;2022-10-15T20:16:21;100985.00;;;12.85;92.04
71764;BME280;59602;52.142;5.408;2022-10-15T20:18:50;100983.84;;;12.86;92.26
71764;BME280;59602;52.142;5.408;2022-10-15T20:21:19;100978.75;;;12.88;91.39
71764;BME280;59602;52.142;5.408;2022-10-15T20:23:58;100987.75;;;12.88;91.61
71764;BME280;59602;52.142;5.408;2022-10-15T20:26:24;100982.28;;;12.88;91.72
71764;BME280;59602;52.142;5.408;2022-10-15T20:28:51;100983.84;;;12.86;91.77
71764;BME280;59602;52.142;5.408;2022-10-15T20:31:19;100993.19;;;12.85;91.78
71764;BME280;59602;52.142;5.408;2022-10-15T20:33:46;100980.34;;;12.82;92.11
71764;BME280;59602;52.142;5.408;2022-10-15T20:36:15;100992.41;;;12.81;91.86
71764;BME280;59602;52.142;5.408;2022-10-15T20:38:49;100995.13;;;12.81;91.69
71764;BME280;59602;52.142;5.408;2022-10-15T20:41:16;100997.09;;;12.80;92.04
71764;BME280;59602;52.142;5.408;2022-10-15T20:43:44;101003.72;;;12.79;91.54
71764;BME280;59602;52.142;5.408;2022-10-15T20:46:15;101004.13;;;12.78;92.05
71764;BME280;59602;52.142;5.408;2022-10-15T20:48:44;101005.25;;;12.77;91.83
71764;BME280;59602;52.142;5.408;2022-10-15T20:51:14;101009.94;;;12.76;91.75
71764;BME280;59602;52.142;5.408;2022-10-15T20:53:42;101017.38;;;12.76;91.55
71764;BME280;59602;52.142;5.408;2022-10-15T20:56:13;101024.38;;;12.73;91.63
71764;BME280;59602;52.142;5.408;2022-10-15T20:58:39;101022.81;;;12.72;91.87
71764;BME280;59602;52.142;5.408;2022-10-15T21:01:07;101016.97;;;12.70;91.85
71764;BME280;59602;52.142;5.408;2022-10-15T21:03:33;101016.97;;;12.70;91.73
71764;BME280;59602;52.142;5.408;2022-10-15T21:06:00;101025.56;;;12.69;91.67
71764;BME280;59602;52.142;5.408;2022-10-15T21:08:26;101026.31;;;12.69;91.31
71764;BME280;59602;52.142;5.408;2022-10-15T21:11:00;101032.19;;;12.71;91.50
71764;BME280;59602;52.142;5.408;2022-10-15T21:13:28;101034.53;;;12.73;92.04
71764;BME280;59602;52.142;5.408;2022-10-15T21:15:57;101029.84;;;12.73;91.91
71764;BME280;59602;52.142;5.408;2022-10-15T21:18:24;101028.28;;;12.76;92.08
71764;BME280;59602;52.142;5.408;2022-10-15T21:20:53;101039.19;;;12.76;91.86
71764;BME280;59602;52.142;5.408;2022-10-15T21:23:20;101041.91;;;12.76;91.80
71764;BME280;59602;52.142;5.408;2022-10-15T21:25:47;101034.50;;;12.76;92.28
71764;BME280;59602;52.142;5.408;2022-10-15T21:28:13;101042.69;;;12.76;91.54
71764;BME280;59602;52.142;5.408;2022-10-15T21:30:40;101052.03;;;12.79;91.69
71764;BME280;59602;52.142;5.408;2022-10-15T21:33:07;101049.31;;;12.79;91.72
71764;BME280;59602;52.142;5.408;2022-10-15T21:35:33;101059.06;;;12.80;91.66
71764;BME280;59602;52.142;5.408;2022-10-15T21:38:00;101061.81;;;12.80;92.22
71764;BME280;59602;52.142;5.408;2022-10-15T21:40:27;101061.78;;;12.76;92.03
71764;BME280;59602;52.142;5.408;2022-10-15T21:42:53;101057.13;;;12.77;92.05
71764;BME280;59602;52.142;5.408;2022-10-15T21:45:20;101064.53;;;12.76;92.07
71764;BME280;59602;52.142;5.408;2022-10-15T21:47:46;101057.13;;;12.77;92.16
71764;BME280;59602;52.142;5.408;2022-10-15T21:50:13;101058.28;;;12.76;92.09
71764;BME280;59602;52.142;5.408;2022-10-15T21:52:39;101060.66;;;12.77;92.16
71764;BME280;59602;52.142;5.408;2022-10-15T21:55:06;101064.91;;;12.78;91.69
71764;BME280;59602;52.142;5.408;2022-10-15T21:57:33;101065.28;;;12.77;91.81
71764;BME280;59602;52.142;5.408;2022-10-15T21:59:59;101073.09;;;12.78;91.84
71764;BME280;59602;52.142;5.408;2022-10-15T22:02:26;101072.34;;;12.78;91.69
71764;BME280;59602;52.142;5.408;2022-10-15T22:04:52;101084.41;;;12.77;91.53
71764;BME280;59602;52.142;5.408;2022-10-15T22:07:19;101089.09;;;12.80;91.97
71764;BME280;59602;52.142;5.408;2022-10-15T22:09:47;101084.41;;;12.80;91.84
71764;BME280;59602;52.142;5.408;2022-10-15T22:12:13;101086.38;;;12.80;91.87
71764;BME280;59602;52.142;5.408;2022-10-15T22:14:44;101079.72;;;12.81;91.88
71764;BME280;59602;52.142;5.408;2022-10-15T22:17:11;101089.88;;;12.80;91.94
71764;BME280;59602;52.142;5.408;2022-10-15T22:19:37;101080.13;;;12.79;91.63
71764;BME280;59602;52.142;5.408;2022-10-15T22:22:04;101079.72;;;12.81;91.45
71764;BME280;59602;52.142;5.408;2022-10-15T22:24:30;101082.06;;;12.82;91.40
71764;BME280;59602;52.142;5.408;2022-10-15T22:26:58;101081.69;;;12.84;91.60